createdAt,value
2023-03-10T00:05:33.293Z,25.8
2023-03-10T00:11:27.743Z,25.4
2023-03-10T00:17:20.814Z,30.4
2023-03-10T00:23:13.543Z,27.6
2023-03-10T00:28:51.306Z,25.9
2023-03-10T00:34:45.286Z,25.6
2023-03-10T00:40:23.680Z,29.1
2023-03-10T00:46:17.148Z,29.5
2023-03-10T00:51:38.092Z,26.3
2023-03-10T00:57:15.797Z,25.7
2023-03-10T01:03:24.402Z,25.1
2023-03-10T01:09:17.458Z,30.4
2023-03-10T01:15:10.995Z,27.5
2023-03-10T01:20:48.530Z,25.9
2023-03-10T01:26:25.322Z,25.6
2023-03-10T01:32:19.002Z,28.4
2023-03-10T01:37:42.376Z,30.6
2023-03-10T01:43:20.117Z,26.7
2023-03-10T01:49:13.280Z,25.8
2023-03-10T01:55:06.543Z,25.6
2023-03-10T02:00:59.179Z,29.9
2023-03-10T02:06:37.140Z,28.2
2023-03-10T02:11:48.054Z,26.1
2023-03-10T02:17:40.948Z,25.7
2023-03-10T02:23:18.577Z,25.6
2023-03-10T02:29:20.032Z,30.5
2023-03-10T02:35:24.505Z,27
2023-03-10T02:41:02.027Z,25.9
2023-03-10T02:46:39.373Z,25.6
2023-03-10T02:52:01.662Z,28.2
2023-03-10T02:57:39.754Z,30.9
2023-03-10T03:03:16.697Z,26.7
2023-03-10T03:08:53.238Z,25.8
2023-03-10T03:14:16.649Z,25.6
2023-03-10T03:20:10.884Z,28.8
2023-03-10T03:25:32.164Z,29.6
2023-03-10T03:31:28.261Z,26.4
2023-03-10T03:37:22.017Z,25.8
2023-03-10T03:42:59.848Z,25.6
2023-03-10T03:48:55.378Z,29.4
2023-03-10T03:54:48.814Z,28.8
2023-03-10T04:00:41.037Z,26.2
2023-03-10T04:06:03.462Z,25.7
2023-03-10T04:11:55.963Z,25.3
2023-03-10T04:17:49.195Z,30.2
2023-03-10T04:23:26.476Z,27.7
2023-03-10T04:29:20.589Z,26
2023-03-10T04:35:07.323Z,25.7
2023-03-10T04:40:44.011Z,25.9
2023-03-10T04:46:48.680Z,30.4
2023-03-10T04:52:24.489Z,27.3
2023-03-10T04:57:46.244Z,25.9
2023-03-10T05:03:48.698Z,25.6
2023-03-10T05:09:42.940Z,26.9
2023-03-10T05:15:35.234Z,30.9
2023-03-10T05:21:28.511Z,26.9
2023-03-10T05:26:51.520Z,25.9
2023-03-10T05:32:29.050Z,25.6
2023-03-10T05:37:51.030Z,26.8
2023-03-10T05:43:43.384Z,30.7
2023-03-10T05:49:38.230Z,27.3
2023-03-10T05:55:16.341Z,26
2023-03-10T06:01:08.795Z,25.7
2023-03-10T06:06:50.296Z,25.5
2023-03-10T06:12:43.906Z,25.2
2023-03-10T06:18:37.080Z,29.1
2023-03-10T06:24:30.139Z,26.9
2023-03-10T06:30:23.203Z,26.1
2023-03-10T06:36:00.714Z,25.8
2023-03-10T06:41:39.621Z,25.4
2023-03-10T06:47:18.665Z,25.2
2023-03-10T06:52:56.053Z,24.9
2023-03-10T07:03:55.233Z,28.3
2023-03-10T07:09:33.689Z,26.3
2023-03-10T07:15:28.414Z,25.8
2023-03-10T07:21:06.554Z,25.6
2023-03-10T07:27:00.324Z,25.3
2023-03-10T07:32:53.875Z,25
2023-03-10T07:38:46.550Z,29
2023-03-10T07:44:40.428Z,27.1
2023-03-10T07:50:17.956Z,26.1
2023-03-10T07:55:56.029Z,25.7
2023-03-10T08:01:48.191Z,25.4
2023-03-10T08:07:42.828Z,25.2
2023-03-10T08:13:36.533Z,29.1
2023-03-10T08:19:14.717Z,27.3
2023-03-10T08:24:36.713Z,26
2023-03-10T08:30:30.376Z,25.6
2023-03-10T08:36:28.220Z,25.4
2023-03-10T08:42:27.113Z,27.2
2023-03-10T08:48:26.981Z,28.6
2023-03-10T08:53:49.540Z,26.2
2023-03-10T08:59:45.915Z,25.8
2023-03-10T09:05:42.989Z,25.4
2023-03-10T09:11:34.736Z,25.2
2023-03-10T09:17:45.122Z,28.6
2023-03-10T09:23:39.339Z,27.7
2023-03-10T09:29:42.497Z,25.9
2023-03-10T09:35:24.435Z,25.4
2023-03-10T09:41:31.610Z,25.2
2023-03-10T09:47:38.173Z,27.6
2023-03-10T09:53:30.025Z,28.3
2023-03-10T09:59:33.795Z,26.1
2023-03-10T10:05:34.859Z,25.1
2023-03-10T10:11:39.238Z,24.5
2023-03-10T10:18:35.691Z,24.2
2023-03-10T10:24:37.267Z,29.8
2023-03-10T10:30:32.500Z,25.8
2023-03-10T10:36:30.484Z,25.3
2023-03-10T10:42:30.123Z,25.1
2023-03-10T10:48:08.338Z,24.9
2023-03-10T10:53:45.861Z,29.8
2023-03-10T10:59:39.904Z,26.9
2023-03-10T11:05:33.129Z,25.9
2023-03-10T11:11:26.006Z,25.5
2023-03-10T11:16:47.992Z,25.3
2023-03-10T11:22:42.897Z,24.6
2023-03-10T11:28:35.737Z,30.4
2023-03-10T11:34:29.480Z,26.8
2023-03-10T11:40:14.861Z,26.1
2023-03-10T11:46:08.205Z,25.8
2023-03-10T11:51:59.559Z,25.4
2023-03-10T11:57:52.187Z,25.1
2023-03-10T12:03:46.338Z,24.8
2023-03-10T12:09:24.585Z,24.6
2023-03-10T12:15:18.047Z,30.3
2023-03-10T12:21:11.772Z,26.6
2023-03-10T12:27:03.120Z,25.8
2023-03-10T12:32:56.131Z,25.4
2023-03-10T12:38:34.961Z,25.2
2023-03-10T12:44:28.189Z,27.1
2023-03-10T12:50:21.834Z,29.1
2023-03-10T12:56:16.093Z,26.1
2023-03-10T13:02:13.686Z,25.4
2023-03-10T13:07:53.701Z,25.2
2023-03-10T13:13:16.298Z,24.6
2023-03-10T13:19:09.776Z,30.3
2023-03-10T13:24:31.483Z,26.7
2023-03-10T13:30:26.708Z,26
2023-03-10T13:36:19.363Z,25.7
2023-03-10T13:41:55.987Z,25.4
2023-03-10T13:47:46.670Z,25.1
2023-03-10T13:53:38.426Z,24.8
2023-03-10T13:59:29.552Z,29.5
2023-03-10T14:05:26.401Z,27.3
2023-03-10T14:11:19.865Z,26.1
2023-03-10T14:17:13.021Z,25.8
2023-03-10T14:22:50.530Z,25.5
2023-03-10T14:27:58.354Z,25.2
2023-03-10T14:33:21.087Z,25
2023-03-10T14:39:02.257Z,24.8
2023-03-10T14:44:54.896Z,24.4
2023-03-10T14:50:50.406Z,24.1
2023-03-10T14:56:54.789Z,23.9
2023-03-10T15:02:47.234Z,23.7
2023-03-10T15:08:37.295Z,23.4
2023-03-10T15:14:54.150Z,23.2
2023-03-10T15:20:47.809Z,23
2023-03-10T15:26:24.531Z,22.8
2023-03-10T15:32:17.087Z,22.6
2023-03-10T15:38:12.345Z,22.5
2023-03-10T15:44:17.564Z,22.3
2023-03-10T15:50:12.161Z,22.2
2023-03-10T15:56:03.915Z,22.1
2023-03-10T16:01:57.076Z,21.9
2023-03-10T16:07:50.034Z,21.8
2023-03-10T16:13:42.876Z,21.7
2023-03-10T16:19:21.078Z,21.6
2023-03-10T16:24:58.285Z,21.5
2023-03-10T16:30:52.120Z,21.4
2023-03-10T16:36:44.671Z,21.3
2023-03-10T16:42:38.394Z,21.3
2023-03-10T16:58:27.997Z,21.1
2023-03-10T17:03:50.062Z,21
2023-03-10T17:09:51.800Z,20.9
2023-03-10T17:15:47.762Z,20.9
2023-03-10T17:21:26.121Z,20.8
2023-03-10T17:27:20.856Z,20.8
2023-03-10T17:33:14.975Z,20.7
2023-03-10T17:39:06.940Z,20.7
2023-03-10T17:45:13.790Z,20.6
2023-03-10T17:51:06.817Z,20.6
2023-03-10T17:56:43.634Z,20.6
2023-03-10T18:02:37.632Z,20.5
2023-03-10T18:08:32.608Z,20.5
2023-03-10T18:14:24.693Z,20.4
2023-03-10T18:20:17.267Z,20.4
2023-03-10T18:25:54.680Z,20.4
2023-03-10T18:31:47.439Z,20.4
2023-03-10T18:37:41.137Z,20.3
2023-03-10T18:43:34.601Z,20.3
2023-03-10T18:49:11.044Z,20.2
2023-03-10T18:55:03.462Z,20.3
2023-03-10T19:00:41.020Z,20.2
2023-03-10T19:06:33.382Z,20.2
2023-03-10T19:12:27.867Z,20.2
2023-03-10T19:18:21.413Z,20.1
2023-03-10T19:24:14.281Z,20.1
2023-03-10T19:30:07.733Z,20.1
2023-03-10T19:35:45.647Z,20.1
2023-03-10T19:41:07.583Z,20.1
2023-03-10T19:47:01.223Z,20.1
2023-03-10T19:52:53.931Z,20
2023-03-10T19:58:31.265Z,20
2023-03-10T20:04:10.481Z,20
2023-03-10T20:09:47.895Z,20
2023-03-10T20:15:40.257Z,19.9
2023-03-10T20:21:33.315Z,19.9
2023-03-10T20:26:54.579Z,19.9
2023-03-10T20:32:31.963Z,19.9
2023-03-10T20:38:24.525Z,22.9
2023-03-10T20:44:03.074Z,28.4
2023-03-10T20:49:56.683Z,30
2023-03-10T20:55:49.311Z,26.5
2023-03-10T21:01:42.471Z,29.7
2023-03-10T21:07:20.297Z,27.2
2023-03-10T21:12:57.380Z,26.1
2023-03-10T21:18:50.497Z,25.8
2023-03-10T21:23:58.702Z,25.4
2023-03-10T21:29:36.405Z,25.1
2023-03-10T21:35:29.388Z,24.8
2023-03-10T21:41:22.180Z,24.2
2023-03-10T21:47:14.807Z,29.3
2023-03-10T21:53:08.023Z,31.7
2023-03-10T22:04:22.063Z,26.6
2023-03-10T22:10:15.143Z,30.9
2023-03-10T22:16:07.373Z,27.6
2023-03-10T22:21:43.918Z,26.1
2023-03-10T22:27:36.550Z,27.5
2023-03-10T22:33:29.358Z,31.3
2023-03-10T22:39:21.816Z,27.3
2023-03-10T22:44:43.303Z,26.1
2023-03-10T22:50:06.185Z,25.4
2023-03-10T22:55:58.935Z,30.4
2023-03-10T23:01:36.687Z,28.3
2023-03-10T23:06:58.212Z,26.4
2023-03-10T23:12:35.043Z,25.9
2023-03-10T23:18:41.592Z,27.6
2023-03-10T23:24:19.108Z,31.5
2023-03-10T23:30:12.186Z,27
2023-03-10T23:35:50.092Z,26
2023-03-10T23:41:11.119Z,25.8
2023-03-10T23:46:49.242Z,28.8
2023-03-10T23:52:27.472Z,30.9
2023-03-10T23:58:04.992Z,26.8
